Time;durP1;ratioP1;P1;durP2;ratioP2;P2;SDS_P1;SDS_P2;PMS_P1;PMS_P2;Temp;Humidity;BMP_temperature;BMP_pressure;BME280_temperature;BME280_humidity;BME280_pressure;Samples;Min_cycle;Max_cycle;Signal;HPM_P1;HPM_P2
2022/04/18 00:01:28;;;;;;;2.33;1.70;;;;;;;;;;5041634;28;20467;-73
2022/04/18 00:03:55;;;;;;;2.35;1.67;;;;;;;;;;5043032;28;20098;-73
2022/04/18 00:06:20;;;;;;;2.72;1.80;;;;;;;;;;5045313;28;20036;-74
2022/04/18 00:08:46;;;;;;;3.92;2.10;;;;;;;;;;5040483;28;20017;-73
2022/04/18 00:11:11;;;;;;;4.32;1.70;;;;;;;;;;5042450;28;20211;-73
2022/04/18 00:13:37;;;;;;;2.03;1.60;;;;;;;;;;5045042;28;20716;-73
2022/04/18 00:16:02;;;;;;;2.47;1.75;;;;;;;;;;5038579;28;20080;-73
2022/04/18 00:18:27;;;;;;;2.13;1.50;;;;;;;;;;5042541;28;20120;-74
2022/04/18 00:20:53;;;;;;;2.05;1.52;;;;;;;;;;5040101;28;20020;-73
2022/04/18 00:23:18;;;;;;;3.75;1.70;;;;;;;;;;5041096;28;20203;-73
2022/04/18 00:25:44;;;;;;;6.65;1.70;;;;;;;;;;5043875;28;20065;-74
2022/04/18 00:28:10;;;;;;;3.17;2.10;;;;;;;;;;5046568;28;20094;-75
2022/04/18 00:30:35;;;;;;;2.13;1.90;;;;;;;;;;5048688;28;20045;-74
2022/04/18 00:33:00;;;;;;;3.03;1.70;;;;;;;;;;5043825;28;20032;-74
2022/04/18 00:35:26;;;;;;;5.07;1.88;;;;;;;;;;5043280;28;20150;-73
2022/04/18 00:37:51;;;;;;;3.85;1.70;;;;;;;;;;5040329;28;20041;-74
2022/04/18 00:40:17;;;;;;;3.33;1.60;;;;;;;;;;5043483;28;20033;-74
2022/04/18 00:42:44;;;;;;;2.45;1.60;;;;;;;;;;5047351;28;20043;-73
2022/04/18 00:45:09;;;;;;;2.28;1.60;;;;;;;;;;5044657;28;20053;-73
2022/04/18 00:47:35;;;;;;;6.47;1.90;;;;;;;;;;5032691;28;20033;-75
2022/04/18 00:50:01;;;;;;;2.63;1.60;;;;;;;;;;5043123;28;20042;-74
2022/04/18 00:52:26;;;;;;;4.10;1.75;;;;;;;;;;5043341;28;20391;-74
2022/04/18 00:54:54;;;;;;;2.63;1.50;;;;;;;;;;5039817;28;20041;-74
2022/04/18 00:57:21;;;;;;;2.33;1.73;;;;;;;;;;5050587;28;20072;-74
2022/04/18 00:59:46;;;;;;;2.80;1.70;;;;;;;;;;5045369;28;20036;-74
2022/04/18 01:02:13;;;;;;;3.33;1.90;;;;;;;;;;5041706;28;20323;-73
2022/04/18 01:04:39;;;;;;;2.67;1.70;;;;;;;;;;5038808;28;20052;-74
2022/04/18 01:07:05;;;;;;;2.47;1.67;;;;;;;;;;5045255;28;20049;-74
2022/04/18 01:09:33;;;;;;;2.33;1.70;;;;;;;;;;5042992;28;20436;-74
2022/04/18 01:11:58;;;;;;;2.30;1.70;;;;;;;;;;5045910;28;20267;-74
2022/04/18 01:14:24;;;;;;;2.38;1.90;;;;;;;;;;5040435;28;20109;-74
2022/04/18 01:16:50;;;;;;;4.03;1.73;;;;;;;;;;5044159;28;20041;-74
2022/04/18 01:19:15;;;;;;;2.75;1.92;;;;;;;;;;5049191;28;20148;-74
2022/04/18 01:21:40;;;;;;;2.38;1.80;;;;;;;;;;5038290;28;20132;-74
2022/04/18 01:28:58;;;;;;;2.42;1.83;;;;;;;;;;5047562;28;20049;-74
2022/04/18 01:29:35;;;;;;;;;;;;;;;;;;5048581;28;20035;-73
2022/04/18 01:32:00;;;;;;;2.20;1.60;;;;;;;;;;5038771;28;20007;-74
2022/04/18 01:34:25;;;;;;;3.58;2.13;;;;;;;;;;5041675;28;20037;-73
2022/04/18 01:36:51;;;;;;;2.65;1.75;;;;;;;;;;5042357;28;20041;-73
2022/04/18 01:39:16;;;;;;;2.78;1.70;;;;;;;;;;5043074;28;20034;-73
2022/04/18 01:41:41;;;;;;;3.47;1.98;;;;;;;;;;5046636;28;20029;-73
2022/04/18 01:44:07;;;;;;;2.20;1.65;;;;;;;;;;5055611;28;20033;-74
2022/04/18 01:46:32;;;;;;;2.92;1.65;;;;;;;;;;5046513;28;20071;-74
2022/04/18 01:48:57;;;;;;;2.33;1.70;;;;;;;;;;5046717;28;20395;-74
2022/04/18 01:51:23;;;;;;;3.30;1.63;;;;;;;;;;5047106;28;20041;-74
2022/04/18 01:53:48;;;;;;;2.40;1.70;;;;;;;;;;5039855;28;20017;-73
2022/04/18 01:56:14;;;;;;;2.50;1.67;;;;;;;;;;5040850;28;20064;-74
2022/04/18 01:58:39;;;;;;;2.17;1.88;;;;;;;;;;5033353;28;20037;-74
2022/04/18 02:01:06;;;;;;;2.42;1.85;;;;;;;;;;5042220;28;20459;-74
2022/04/18 02:03:32;;;;;;;2.13;1.85;;;;;;;;;;5047831;28;20060;-73
2022/04/18 02:05:57;;;;;;;2.50;2.05;;;;;;;;;;5041629;28;20056;-73
2022/04/18 02:08:23;;;;;;;3.03;1.80;;;;;;;;;;5045376;28;20020;-73
2022/04/18 02:10:49;;;;;;;3.45;1.90;;;;;;;;;;5046924;28;20033;-74
2022/04/18 02:13:14;;;;;;;2.25;1.90;;;;;;;;;;5042427;28;20037;-73
2022/04/18 02:15:40;;;;;;;2.42;1.60;;;;;;;;;;5046382;28;20063;-73
2022/04/18 02:18:05;;;;;;;2.65;2.00;;;;;;;;;;5037562;28;20047;-73
2022/04/18 02:20:31;;;;;;;2.97;1.90;;;;;;;;;;5049915;28;20088;-74
2022/04/18 02:22:56;;;;;;;3.53;2.03;;;;;;;;;;5044864;28;20584;-73
2022/04/18 02:25:22;;;;;;;2.85;1.85;;;;;;;;;;5046900;28;20131;-75
2022/04/18 02:27:47;;;;;;;2.38;1.70;;;;;;;;;;5046095;28;20537;-73
2022/04/18 02:30:13;;;;;;;2.20;1.85;;;;;;;;;;5046717;28;20060;-73
2022/04/18 02:32:47;;;;;;;3.85;1.90;;;;;;;;;;5043968;28;20040;-74
2022/04/18 02:35:12;;;;;;;4.35;1.98;;;;;;;;;;5044228;28;20013;-74
2022/04/18 02:37:38;;;;;;;2.83;1.70;;;;;;;;;;5050174;28;20067;-74
2022/04/18 02:40:05;;;;;;;2.25;1.73;;;;;;;;;;5044073;28;20095;-74
2022/04/18 02:42:31;;;;;;;3.90;1.90;;;;;;;;;;5047232;28;20566;-74
2022/04/18 02:44:56;;;;;;;3.63;1.88;;;;;;;;;;5038537;28;20108;-74
2022/04/18 02:47:22;;;;;;;3.17;1.80;;;;;;;;;;5041766;28;20033;-73
2022/04/18 02:49:47;;;;;;;3.95;1.88;;;;;;;;;;5045510;28;20048;-73
2022/04/18 02:52:13;;;;;;;3.97;1.77;;;;;;;;;;5046223;28;20041;-73
2022/04/18 02:54:38;;;;;;;3.45;2.08;;;;;;;;;;5040785;28;20060;-74
2022/04/18 02:57:04;;;;;;;3.22;1.83;;;;;;;;;;5039310;28;20091;-74
2022/04/18 02:59:29;;;;;;;3.25;1.90;;;;;;;;;;5041891;28;20039;-74
2022/04/18 03:01:54;;;;;;;3.67;2.10;;;;;;;;;;5043548;28;20395;-73
2022/04/18 03:04:20;;;;;;;5.47;1.85;;;;;;;;;;5045636;28;20041;-74
2022/04/18 03:06:45;;;;;;;2.85;1.85;;;;;;;;;;5045611;28;20040;-73
2022/04/18 03:09:10;;;;;;;4.25;2.20;;;;;;;;;;5045794;28;20037;-73
2022/04/18 03:11:35;;;;;;;2.30;1.85;;;;;;;;;;5044804;28;20414;-73
2022/04/18 03:14:01;;;;;;;3.25;2.03;;;;;;;;;;5035535;28;20521;-74
2022/04/18 03:16:26;;;;;;;2.60;1.80;;;;;;;;;;5044297;28;20067;-74
2022/04/18 03:18:51;;;;;;;2.65;2.08;;;;;;;;;;5046612;28;20035;-74
2022/04/18 03:21:17;;;;;;;2.65;1.60;;;;;;;;;;5041670;28;20040;-74
2022/04/18 03:23:44;;;;;;;2.55;1.80;;;;;;;;;;5041119;28;20025;-74
2022/04/18 03:26:10;;;;;;;3.85;1.95;;;;;;;;;;5039190;28;20017;-74
2022/04/18 03:28:36;;;;;;;3.08;1.95;;;;;;;;;;5039995;28;20029;-74
2022/04/18 03:31:01;;;;;;;2.33;1.77;;;;;;;;;;5041564;28;20044;-73
2022/04/18 03:33:27;;;;;;;3.72;1.90;;;;;;;;;;5040515;28;20060;-74
2022/04/18 03:41:20;;;;;;;2.85;2.13;;;;;;;;;;5037811;28;20043;-74
2022/04/18 03:43:45;;;;;;;3.33;1.92;;;;;;;;;;5043646;28;20034;-74
2022/04/18 03:46:11;;;;;;;3.22;2.10;;;;;;;;;;5043193;28;20150;-75
2022/04/18 03:48:36;;;;;;;2.90;1.95;;;;;;;;;;5044742;28;20114;-74
2022/04/18 03:51:01;;;;;;;3.78;1.80;;;;;;;;;;5041527;28;20102;-75
2022/04/18 03:53:27;;;;;;;3.20;2.08;;;;;;;;;;5039529;28;20032;-74
2022/04/18 03:55:52;;;;;;;3.00;2.03;;;;;;;;;;5033803;28;20036;-74
2022/04/18 03:58:17;;;;;;;3.78;2.10;;;;;;;;;;5042604;28;20044;-74
2022/04/18 04:00:43;;;;;;;3.03;2.03;;;;;;;;;;5029070;28;20045;-74
2022/04/18 04:03:10;;;;;;;2.38;1.80;;;;;;;;;;5042359;28;20461;-74
2022/04/18 04:05:36;;;;;;;3.45;2.00;;;;;;;;;;5047217;28;20082;-73
2022/04/18 04:08:01;;;;;;;4.00;2.00;;;;;;;;;;5048468;28;20041;-73
2022/04/18 04:10:26;;;;;;;3.05;2.05;;;;;;;;;;5046229;28;20040;-74
2022/04/18 04:12:52;;;;;;;1.98;1.60;;;;;;;;;;5041002;28;20056;-74
2022/04/18 04:15:17;;;;;;;2.40;1.80;;;;;;;;;;5049084;28;20399;-74
2022/04/18 04:17:43;;;;;;;2.13;1.77;;;;;;;;;;5048506;28;20063;-73
2022/04/18 04:20:08;;;;;;;3.38;2.00;;;;;;;;;;5045973;28;20112;-73
2022/04/18 04:22:34;;;;;;;3.17;1.90;;;;;;;;;;5048556;28;20044;-73
2022/04/18 04:25:00;;;;;;;5.05;2.50;;;;;;;;;;5043533;28;20434;-75
2022/04/18 04:27:26;;;;;;;3.13;2.30;;;;;;;;;;5038218;28;20041;-73
2022/04/18 04:29:51;;;;;;;2.60;1.80;;;;;;;;;;5043912;28;20024;-73
2022/04/18 04:32:16;;;;;;;2.20;1.70;;;;;;;;;;5047564;28;20025;-73
2022/04/18 04:34:42;;;;;;;2.75;1.77;;;;;;;;;;5035972;28;20033;-73
2022/04/18 04:37:08;;;;;;;3.45;2.10;;;;;;;;;;5048352;28;20065;-73
2022/04/18 04:39:33;;;;;;;2.63;1.90;;;;;;;;;;5044760;28;20071;-73
2022/04/18 04:41:59;;;;;;;4.88;2.00;;;;;;;;;;5044415;28;20033;-73
2022/04/18 04:44:24;;;;;;;3.35;2.10;;;;;;;;;;5045436;28;20700;-74
2022/04/18 04:46:50;;;;;;;3.70;1.90;;;;;;;;;;5048350;28;20036;-74
2022/04/18 04:49:16;;;;;;;2.75;1.90;;;;;;;;;;5047743;28;20095;-74
2022/04/18 04:51:42;;;;;;;3.67;2.00;;;;;;;;;;5045878;28;20045;-73
2022/04/18 04:54:07;;;;;;;2.60;2.10;;;;;;;;;;5046142;28;20033;-73
2022/04/18 04:56:32;;;;;;;2.58;2.03;;;;;;;;;;5050155;28;20021;-74
2022/04/18 04:58:58;;;;;;;3.60;2.40;;;;;;;;;;5042993;28;20561;-73
2022/04/18 05:01:23;;;;;;;5.00;2.00;;;;;;;;;;5041544;28;20033;-73
2022/04/18 05:03:49;;;;;;;3.10;2.10;;;;;;;;;;5045047;28;20061;-73
2022/04/18 05:06:14;;;;;;;4.05;2.80;;;;;;;;;;5043080;28;20530;-73
2022/04/18 05:08:41;;;;;;;3.35;2.00;;;;;;;;;;5047467;28;20017;-73
2022/04/18 05:11:06;;;;;;;5.90;2.50;;;;;;;;;;5048111;28;20024;-74
2022/04/18 05:13:32;;;;;;;3.22;2.20;;;;;;;;;;5038187;28;20033;-73
2022/04/18 05:15:57;;;;;;;6.07;2.42;;;;;;;;;;5037697;28;20036;-73
2022/04/18 05:18:23;;;;;;;3.40;2.20;;;;;;;;;;5047269;28;20040;-73
2022/04/18 05:20:48;;;;;;;4.97;2.35;;;;;;;;;;5049607;28;20017;-73
2022/04/18 05:23:20;;;;;;;4.78;2.45;;;;;;;;;;5049024;28;20492;-73
2022/04/18 05:25:45;;;;;;;3.03;2.08;;;;;;;;;;5045367;28;20037;-73
2022/04/18 05:28:10;;;;;;;2.53;2.10;;;;;;;;;;5039176;28;20083;-74
2022/04/18 05:30:37;;;;;;;3.50;2.13;;;;;;;;;;5046296;28;20076;-73
2022/04/18 05:33:03;;;;;;;4.88;2.50;;;;;;;;;;5042843;28;20044;-73
2022/04/18 05:35:28;;;;;;;7.15;2.28;;;;;;;;;;5044975;28;20017;-73
2022/04/18 05:37:54;;;;;;;4.05;2.20;;;;;;;;;;5044402;28;20030;-74
2022/04/18 05:40:19;;;;;;;3.90;2.17;;;;;;;;;;5036811;28;20040;-74
2022/04/18 05:42:44;;;;;;;5.10;2.17;;;;;;;;;;5041392;28;20059;-75
2022/04/18 05:45:10;;;;;;;2.58;2.05;;;;;;;;;;5041565;28;20045;-73
2022/04/18 05:47:35;;;;;;;3.28;2.10;;;;;;;;;;5044924;28;20115;-74
2022/04/18 05:50:01;;;;;;;3.70;2.10;;;;;;;;;;5047097;28;20037;-74
2022/04/18 05:52:26;;;;;;;2.78;2.17;;;;;;;;;;5044637;28;20413;-74
2022/04/18 05:54:51;;;;;;;3.30;2.03;;;;;;;;;;5040853;28;20032;-74
2022/04/18 05:57:17;;;;;;;3.33;2.38;;;;;;;;;;5038255;28;20099;-74
2022/04/18 05:59:42;;;;;;;4.40;2.60;;;;;;;;;;5046635;28;20021;-73
2022/04/18 06:02:07;;;;;;;6.22;2.28;;;;;;;;;;5051390;28;20027;-73
2022/04/18 06:04:33;;;;;;;3.92;2.60;;;;;;;;;;5044727;28;20040;-73
2022/04/18 06:06:58;;;;;;;4.05;2.40;;;;;;;;;;5044805;28;20041;-73
2022/04/18 06:09:24;;;;;;;4.07;2.55;;;;;;;;;;5044484;28;20037;-73
2022/04/18 06:11:49;;;;;;;6.60;2.67;;;;;;;;;;5041735;28;20075;-73
2022/04/18 06:14:14;;;;;;;5.07;2.80;;;;;;;;;;5045725;28;20021;-73
2022/04/18 06:16:40;;;;;;;4.75;2.33;;;;;;;;;;5047753;28;20025;-73
2022/04/18 06:19:05;;;;;;;5.45;2.65;;;;;;;;;;5053223;28;20518;-74
2022/04/18 06:21:30;;;;;;;4.82;2.65;;;;;;;;;;5041790;28;20613;-73
2022/04/18 06:23:56;;;;;;;6.05;2.92;;;;;;;;;;5041253;28;20071;-74
2022/04/18 06:26:21;;;;;;;8.30;3.30;;;;;;;;;;5040234;28;20025;-75
2022/04/18 06:28:46;;;;;;;4.63;2.97;;;;;;;;;;5042171;28;20033;-74
2022/04/18 06:31:12;;;;;;;7.65;3.10;;;;;;;;;;5045214;28;20451;-75
2022/04/18 06:33:37;;;;;;;5.15;2.88;;;;;;;;;;5044055;28;20566;-75
2022/04/18 06:36:03;;;;;;;4.00;2.65;;;;;;;;;;5045178;28;20041;-74
2022/04/18 06:38:31;;;;;;;5.47;2.83;;;;;;;;;;5044826;28;20035;-75
2022/04/18 06:40:59;;;;;;;4.68;2.58;;;;;;;;;;5037048;28;20116;-73
2022/04/18 06:43:25;;;;;;;4.70;3.10;;;;;;;;;;5037227;28;20131;-74
2022/04/18 06:45:50;;;;;;;4.30;2.60;;;;;;;;;;5039200;28;20116;-73
2022/04/18 06:48:15;;;;;;;3.97;2.55;;;;;;;;;;5042446;28;20048;-74
2022/04/18 06:50:41;;;;;;;4.47;2.75;;;;;;;;;;5044118;28;20031;-74
2022/04/18 06:53:07;;;;;;;5.90;2.97;;;;;;;;;;5043664;28;20047;-75
2022/04/18 06:58:17;;;;;;;6.03;3.20;;;;;;;;;;5045616;28;20433;-75
2022/04/18 07:00:42;;;;;;;5.43;3.50;;;;;;;;;;5044870;28;20033;-75
2022/04/18 07:03:07;;;;;;;6.70;3.25;;;;;;;;;;5046037;28;20052;-74
2022/04/18 07:05:33;;;;;;;7.68;3.75;;;;;;;;;;5044515;28;20532;-74
2022/04/18 07:07:58;;;;;;;5.57;3.35;;;;;;;;;;5044838;28;20537;-75
2022/04/18 07:10:23;;;;;;;5.65;3.33;;;;;;;;;;5045065;28;20044;-76
2022/04/18 07:12:49;;;;;;;5.45;3.10;;;;;;;;;;5032562;28;20033;-74
2022/04/18 07:15:14;;;;;;;4.32;2.92;;;;;;;;;;5034051;28;20096;-75
2022/04/18 07:17:39;;;;;;;5.13;3.28;;;;;;;;;;5043179;28;20102;-74
2022/04/18 07:20:05;;;;;;;5.35;2.72;;;;;;;;;;5040548;28;20051;-77
2022/04/18 07:22:30;;;;;;;4.55;3.28;;;;;;;;;;5046865;28;20542;-77
2022/04/18 07:24:59;;;;;;;6.97;2.90;;;;;;;;;;5045090;28;20068;-76
2022/04/18 07:27:24;;;;;;;4.55;2.58;;;;;;;;;;5037450;28;20073;-76
2022/04/18 07:29:50;;;;;;;6.45;2.65;;;;;;;;;;5040718;28;20056;-75
2022/04/18 07:32:15;;;;;;;3.58;2.33;;;;;;;;;;5041165;28;20025;-77
2022/04/18 07:34:41;;;;;;;3.95;2.47;;;;;;;;;;5035797;28;20044;-78
2022/04/18 07:37:06;;;;;;;3.63;2.45;;;;;;;;;;5038009;28;20048;-79
2022/04/18 07:39:31;;;;;;;4.05;2.53;;;;;;;;;;5042741;28;20414;-79
2022/04/18 07:41:57;;;;;;;4.43;2.72;;;;;;;;;;5044504;28;20037;-78
2022/04/18 07:44:22;;;;;;;5.15;3.10;;;;;;;;;;5044095;28;20028;-78
2022/04/18 07:46:48;;;;;;;6.03;3.58;;;;;;;;;;5047064;28;20057;-77
2022/04/18 07:49:13;;;;;;;6.88;3.90;;;;;;;;;;5045357;28;20029;-78
2022/04/18 07:51:42;;;;;;;9.02;4.05;;;;;;;;;;5046642;28;20187;-77
2022/04/18 07:54:12;;;;;;;8.23;4.85;;;;;;;;;;5043918;28;20040;-77
2022/04/18 07:56:38;;;;;;;10.80;5.93;;;;;;;;;;5048747;28;20397;-78
2022/04/18 07:59:05;;;;;;;11.23;5.32;;;;;;;;;;5046932;28;20040;-79
2022/04/18 08:01:32;;;;;;;11.88;6.25;;;;;;;;;;5046788;28;20052;-77
2022/04/18 08:04:00;;;;;;;14.65;6.95;;;;;;;;;;5045687;28;20063;-77
2022/04/18 08:06:25;;;;;;;17.35;6.50;;;;;;;;;;5046626;28;20478;-78
2022/04/18 08:08:51;;;;;;;15.15;6.07;;;;;;;;;;5050121;28;20104;-77
2022/04/18 08:11:16;;;;;;;12.93;6.78;;;;;;;;;;5049643;28;20557;-77
2022/04/18 08:13:43;;;;;;;15.00;6.43;;;;;;;;;;5039069;28;20045;-78
2022/04/18 08:16:08;;;;;;;17.58;7.10;;;;;;;;;;5038663;28;20033;-77
2022/04/18 08:18:38;;;;;;;16.42;7.25;;;;;;;;;;5045303;28;20099;-77
2022/04/18 08:21:04;;;;;;;12.05;6.85;;;;;;;;;;5042157;28;20090;-78
2022/04/18 08:23:31;;;;;;;12.82;6.95;;;;;;;;;;5045889;28;20706;-77
2022/04/18 08:25:56;;;;;;;14.95;6.95;;;;;;;;;;5042357;28;20087;-77
2022/04/18 08:28:22;;;;;;;13.07;6.97;;;;;;;;;;5044045;28;20041;-77
2022/04/18 08:30:47;;;;;;;11.70;5.20;;;;;;;;;;5042068;28;20033;-76
2022/04/18 08:33:12;;;;;;;12.48;5.97;;;;;;;;;;5046642;28;20037;-77
2022/04/18 08:35:38;;;;;;;11.68;6.28;;;;;;;;;;5049391;28;20048;-77
2022/04/18 08:38:04;;;;;;;9.85;5.30;;;;;;;;;;5046347;28;20052;-77
2022/04/18 08:40:29;;;;;;;8.15;4.45;;;;;;;;;;5049179;28;20033;-77
2022/04/18 08:42:58;;;;;;;5.68;3.50;;;;;;;;;;5051428;28;20044;-77
2022/04/18 08:45:26;;;;;;;5.15;3.05;;;;;;;;;;5036684;28;20103;-77
2022/04/18 08:53:28;;;;;;;4.95;2.80;;;;;;;;;;5043039;28;20119;-70
2022/04/18 08:55:54;;;;;;;6.30;3.13;;;;;;;;;;5045555;28;20115;-68
2022/04/18 08:58:22;;;;;;;3.85;2.80;;;;;;;;;;5045977;28;20047;-70
2022/04/18 09:00:48;;;;;;;10.10;3.22;;;;;;;;;;5046258;28;20064;-69
2022/04/18 09:03:13;;;;;;;5.45;2.97;;;;;;;;;;5047098;28;20126;-70
2022/04/18 09:05:39;;;;;;;5.75;3.05;;;;;;;;;;5046606;28;20029;-68
2022/04/18 09:08:06;;;;;;;6.40;3.03;;;;;;;;;;5045554;28;20122;-69
2022/04/18 09:10:32;;;;;;;4.63;2.60;;;;;;;;;;5046341;28;20533;-69
2022/04/18 09:13:08;;;;;;;3.90;2.85;;;;;;;;;;5047720;28;20040;-70
2022/04/18 09:15:42;;;;;;;4.63;2.95;;;;;;;;;;5044538;28;20120;-70
2022/04/18 09:18:08;;;;;;;4.95;3.15;;;;;;;;;;5045624;28;20044;-69
2022/04/18 09:21:03;;;;;;;6.97;3.17;;;;;;;;;;5046078;28;20587;-69
2022/04/18 09:23:33;;;;;;;4.72;2.95;;;;;;;;;;5043277;28;20045;-68
2022/04/18 09:26:02;;;;;;;4.97;2.90;;;;;;;;;;5039433;28;20515;-69
2022/04/18 09:28:32;;;;;;;5.65;2.58;;;;;;;;;;5040299;28;20037;-69
2022/04/18 09:31:09;;;;;;;5.38;2.70;;;;;;;;;;5037141;28;20063;-69
2022/04/18 09:33:37;;;;;;;5.40;2.63;;;;;;;;;;5044625;28;20036;-69
2022/04/18 09:36:19;;;;;;;5.22;2.75;;;;;;;;;;5045357;28;20632;-69
2022/04/18 09:38:50;;;;;;;3.72;2.60;;;;;;;;;;5042774;28;20477;-69
2022/04/18 09:41:25;;;;;;;4.53;2.80;;;;;;;;;;5040373;28;20524;-70
2022/04/18 09:43:52;;;;;;;4.43;2.35;;;;;;;;;;5045172;28;20039;-69
2022/04/18 09:46:18;;;;;;;2.90;2.40;;;;;;;;;;5040053;28;20099;-69
2022/04/18 09:48:45;;;;;;;3.92;2.60;;;;;;;;;;5044342;28;20033;-69
2022/04/18 09:51:34;;;;;;;4.53;2.67;;;;;;;;;;5040004;28;20570;-70
2022/04/18 09:54:00;;;;;;;3.78;2.60;;;;;;;;;;5039597;28;20055;-70
2022/04/18 09:56:29;;;;;;;4.70;2.78;;;;;;;;;;5039986;28;20037;-72
2022/04/18 09:58:58;;;;;;;5.95;2.70;;;;;;;;;;5033645;28;20048;-72
2022/04/18 10:01:24;;;;;;;4.97;3.22;;;;;;;;;;5035452;28;20036;-73
2022/04/18 10:03:52;;;;;;;3.80;2.67;;;;;;;;;;5034938;28;20545;-72
2022/04/18 10:06:18;;;;;;;4.13;2.50;;;;;;;;;;5036990;28;20637;-69
2022/04/18 10:08:44;;;;;;;3.92;2.55;;;;;;;;;;5037518;28;20517;-71
2022/04/18 10:11:09;;;;;;;2.90;2.13;;;;;;;;;;5037983;28;20044;-71
2022/04/18 10:13:36;;;;;;;3.60;2.50;;;;;;;;;;5037035;28;20044;-71
2022/04/18 10:16:02;;;;;;;3.28;2.50;;;;;;;;;;5036967;28;20426;-71
2022/04/18 10:18:28;;;;;;;5.05;2.90;;;;;;;;;;5044518;28;20045;-71
2022/04/18 10:21:13;;;;;;;3.60;2.42;;;;;;;;;;5045190;28;20028;-71
2022/04/18 10:24:09;;;;;;;3.78;2.30;;;;;;;;;;5042394;28;20052;-71
2022/04/18 10:27:12;;;;;;;2.55;2.00;;;;;;;;;;5037566;28;20098;-71
2022/04/18 10:29:42;;;;;;;2.97;1.70;;;;;;;;;;5043300;28;20082;-71
2022/04/18 10:32:09;;;;;;;2.28;1.90;;;;;;;;;;5042526;28;20052;-71
2022/04/18 10:34:35;;;;;;;6.78;2.30;;;;;;;;;;5043636;28;20087;-71
2022/04/18 10:37:03;;;;;;;3.58;2.17;;;;;;;;;;5035344;28;20483;-71
2022/04/18 10:39:37;;;;;;;3.92;2.28;;;;;;;;;;5041076;28;20029;-71
2022/04/18 10:42:19;;;;;;;2.97;2.38;;;;;;;;;;5039302;28;20118;-71
2022/04/18 10:44:57;;;;;;;4.53;2.37;;;;;;;;;;5044114;28;20025;-71
2022/04/18 10:47:23;;;;;;;4.00;2.60;;;;;;;;;;5043137;28;20039;-72
2022/04/18 10:50:18;;;;;;;5.90;3.10;;;;;;;;;;5040103;28;20048;-71
2022/04/18 10:53:08;;;;;;;4.15;2.70;;;;;;;;;;5039421;28;20068;-71
2022/04/18 10:55:35;;;;;;;3.92;2.20;;;;;;;;;;5043253;28;20040;-71
2022/04/18 10:58:12;;;;;;;3.20;2.35;;;;;;;;;;5041701;28;20047;-72
2022/04/18 11:00:53;;;;;;;4.03;2.85;;;;;;;;;;5040453;28;20041;-72
2022/04/18 11:03:43;;;;;;;5.97;3.15;;;;;;;;;;5041555;28;20115;-71
2022/04/18 11:06:36;;;;;;;7.82;3.25;;;;;;;;;;5038434;28;20045;-71
2022/04/18 11:09:10;;;;;;;8.23;3.20;;;;;;;;;;5034765;28;20041;-71
2022/04/18 11:11:49;;;;;;;5.53;3.60;;;;;;;;;;5040111;28;20071;-72
2022/04/18 11:14:15;;;;;;;5.07;3.40;;;;;;;;;;5036246;28;20588;-72
2022/04/18 11:16:43;;;;;;;9.30;3.58;;;;;;;;;;5038687;28;20048;-75
2022/04/18 11:19:17;;;;;;;4.07;3.42;;;;;;;;;;5033440;28;20049;-71
2022/04/18 11:21:59;;;;;;;5.20;3.20;;;;;;;;;;5030141;28;20037;-71
2022/04/18 11:24:37;;;;;;;4.65;2.97;;;;;;;;;;5028615;28;20141;-71
2022/04/18 11:27:09;;;;;;;3.92;2.90;;;;;;;;;;5037640;28;20071;-71
2022/04/18 11:29:35;;;;;;;4.73;3.10;;;;;;;;;;5037859;28;20596;-71
2022/04/18 11:32:01;;;;;;;4.82;2.92;;;;;;;;;;5038966;28;20033;-71
2022/04/18 11:34:28;;;;;;;4.72;3.10;;;;;;;;;;5036313;28;20043;-72
2022/04/18 11:36:58;;;;;;;5.32;3.42;;;;;;;;;;5039144;28;20528;-72
2022/04/18 11:39:24;;;;;;;4.70;3.13;;;;;;;;;;5039629;28;20045;-72
2022/04/18 11:42:01;;;;;;;5.10;2.95;;;;;;;;;;5042162;28;20039;-72
2022/04/18 11:44:26;;;;;;;4.93;2.97;;;;;;;;;;5033422;28;20028;-71
2022/04/18 11:46:52;;;;;;;4.30;2.83;;;;;;;;;;5039752;28;20041;-71
2022/04/18 11:49:26;;;;;;;3.08;2.28;;;;;;;;;;5034362;28;20098;-71
2022/04/18 11:51:53;;;;;;;3.55;2.85;;;;;;;;;;5038284;28;20168;-72
2022/04/18 11:54:18;;;;;;;4.65;2.90;;;;;;;;;;5039755;28;20052;-72
2022/04/18 11:56:59;;;;;;;7.13;2.53;;;;;;;;;;5042268;28;20045;-71
2022/04/18 11:59:30;;;;;;;5.70;2.10;;;;;;;;;;5040296;28;20243;-72
2022/04/18 12:07:29;;;;;;;3.65;2.03;;;;;;;;;;5040536;28;20048;-71
2022/04/18 12:09:54;;;;;;;4.13;2.10;;;;;;;;;;5034142;28;20049;-71
2022/04/18 12:12:29;;;;;;;4.25;2.10;;;;;;;;;;5040843;28;20048;-71
2022/04/18 12:15:02;;;;;;;5.10;2.50;;;;;;;;;;5037245;28;20071;-71
2022/04/18 12:17:27;;;;;;;3.90;2.37;;;;;;;;;;5042160;28;20037;-71
2022/04/18 12:19:52;;;;;;;5.35;1.98;;;;;;;;;;5043816;28;20094;-71
2022/04/18 12:22:22;;;;;;;4.40;2.28;;;;;;;;;;5042297;28;20107;-70
2022/04/18 12:24:48;;;;;;;3.45;2.13;;;;;;;;;;5045253;28;20552;-70
2022/04/18 12:27:14;;;;;;;3.42;2.10;;;;;;;;;;5038313;28;20063;-70
2022/04/18 12:29:40;;;;;;;3.70;2.50;;;;;;;;;;5044894;28;20400;-70
2022/04/18 12:32:05;;;;;;;3.00;2.20;;;;;;;;;;5042787;28;20020;-70
2022/04/18 12:34:31;;;;;;;3.78;2.20;;;;;;;;;;5047752;28;20500;-70
2022/04/18 12:37:00;;;;;;;2.75;1.98;;;;;;;;;;5048304;28;20033;-71
2022/04/18 12:39:26;;;;;;;3.78;2.38;;;;;;;;;;5044433;28;20075;-72
2022/04/18 12:42:03;;;;;;;3.70;2.55;;;;;;;;;;5047770;28;20056;-69
2022/04/18 12:44:28;;;;;;;6.20;2.40;;;;;;;;;;5044909;28;20622;-67
2022/04/18 12:46:54;;;;;;;2.70;2.20;;;;;;;;;;5042351;28;20067;-68
2022/04/18 12:49:19;;;;;;;3.65;2.40;;;;;;;;;;5046297;28;20037;-67
2022/04/18 12:51:50;;;;;;;3.00;2.50;;;;;;;;;;5047012;28;20038;-68
2022/04/18 12:54:19;;;;;;;3.13;2.30;;;;;;;;;;5043993;28;20056;-68
2022/04/18 12:56:46;;;;;;;3.25;2.15;;;;;;;;;;5048940;28;20016;-68
2022/04/18 12:59:14;;;;;;;3.75;2.75;;;;;;;;;;5043269;28;20020;-67
2022/04/18 13:01:40;;;;;;;4.20;2.63;;;;;;;;;;5049981;28;20791;-68
2022/04/18 13:04:19;;;;;;;3.35;2.50;;;;;;;;;;5054392;28;20098;-68
2022/04/18 13:07:04;;;;;;;4.15;2.50;;;;;;;;;;5044750;28;20040;-68
2022/04/18 13:09:30;;;;;;;3.63;1.85;;;;;;;;;;5042584;28;20044;-68
2022/04/18 13:12:04;;;;;;;4.40;2.45;;;;;;;;;;5043600;28;20117;-68
2022/04/18 13:14:30;;;;;;;3.22;2.10;;;;;;;;;;5039057;28;20021;-68
2022/04/18 13:17:09;;;;;;;4.40;2.30;;;;;;;;;;5035727;28;20029;-68
2022/04/18 13:19:36;;;;;;;3.10;2.13;;;;;;;;;;5044372;28;20084;-67
2022/04/18 13:22:02;;;;;;;2.70;2.20;;;;;;;;;;5044408;28;20074;-68
2022/04/18 13:24:28;;;;;;;4.90;2.40;;;;;;;;;;5046855;28;20120;-68
2022/04/18 13:26:53;;;;;;;3.22;2.30;;;;;;;;;;5046269;28;20466;-68
2022/04/18 13:29:18;;;;;;;2.90;2.13;;;;;;;;;;5046086;28;20564;-68
2022/04/18 13:31:44;;;;;;;3.42;2.25;;;;;;;;;;5040615;28;20450;-69
2022/04/18 13:34:09;;;;;;;3.88;2.28;;;;;;;;;;5042941;28;20120;-68
2022/04/18 13:36:37;;;;;;;4.35;2.22;;;;;;;;;;5031836;28;20091;-68
2022/04/18 13:39:08;;;;;;;3.05;1.90;;;;;;;;;;5043033;28;20130;-68
2022/04/18 13:41:34;;;;;;;3.25;2.33;;;;;;;;;;5045896;28;20033;-68
2022/04/18 13:44:00;;;;;;;4.15;2.70;;;;;;;;;;5043571;28;20605;-69
2022/04/18 13:46:27;;;;;;;2.55;2.30;;;;;;;;;;5047277;28;20073;-69
2022/04/18 13:48:53;;;;;;;6.13;2.50;;;;;;;;;;5044899;28;20033;-69
2022/04/18 13:51:20;;;;;;;3.35;2.42;;;;;;;;;;5043467;28;20044;-68
2022/04/18 13:53:46;;;;;;;3.03;2.58;;;;;;;;;;5037779;28;20032;-68
2022/04/18 13:56:12;;;;;;;4.60;2.83;;;;;;;;;;5039525;28;20021;-68
2022/04/18 13:58:37;;;;;;;3.83;2.53;;;;;;;;;;5045714;28;20502;-68
2022/04/18 14:01:03;;;;;;;3.33;2.40;;;;;;;;;;5045393;28;20810;-68
2022/04/18 14:03:29;;;;;;;3.42;2.60;;;;;;;;;;5045988;28;20604;-68
2022/04/18 14:05:57;;;;;;;3.83;2.70;;;;;;;;;;5041806;28;20033;-68
2022/04/18 14:08:23;;;;;;;3.25;2.50;;;;;;;;;;5038796;28;20021;-68
2022/04/18 14:10:49;;;;;;;3.53;2.45;;;;;;;;;;5043935;28;20094;-68
2022/04/18 14:13:15;;;;;;;2.85;2.13;;;;;;;;;;5046985;28;20045;-69
2022/04/18 14:21:07;;;;;;;6.35;3.10;;;;;;;;;;5034595;28;20088;-68
2022/04/18 14:23:33;;;;;;;4.60;2.60;;;;;;;;;;5032932;28;20009;-68
2022/04/18 14:25:58;;;;;;;5.28;2.78;;;;;;;;;;5040941;28;20069;-68
2022/04/18 14:28:23;;;;;;;3.25;2.75;;;;;;;;;;5035989;28;20142;-68
2022/04/18 14:30:49;;;;;;;5.13;2.50;;;;;;;;;;5042473;28;20025;-68
2022/04/18 14:33:17;;;;;;;3.97;2.28;;;;;;;;;;5042792;28;20044;-69
2022/04/18 14:35:43;;;;;;;2.92;2.45;;;;;;;;;;5037931;28;20021;-69
2022/04/18 14:38:09;;;;;;;3.97;2.40;;;;;;;;;;5043082;28;20395;-68
2022/04/18 14:40:35;;;;;;;5.07;2.58;;;;;;;;;;5043950;28;20067;-68
2022/04/18 14:43:01;;;;;;;2.97;2.30;;;;;;;;;;5037580;28;20093;-68
2022/04/18 14:45:26;;;;;;;5.55;2.90;;;;;;;;;;5041020;28;20139;-68
2022/04/18 14:47:51;;;;;;;3.35;2.70;;;;;;;;;;5042107;28;20021;-68
2022/04/18 14:50:17;;;;;;;4.85;2.45;;;;;;;;;;5043952;28;20883;-68
2022/04/18 14:52:42;;;;;;;3.38;2.55;;;;;;;;;;5040997;28;20052;-68
2022/04/18 14:55:08;;;;;;;3.03;2.10;;;;;;;;;;5035742;28;20041;-68
2022/04/18 14:57:33;;;;;;;3.08;2.63;;;;;;;;;;5039658;28;20120;-68
2022/04/18 15:00:00;;;;;;;3.20;2.33;;;;;;;;;;5038657;28;20041;-68
2022/04/18 15:02:25;;;;;;;8.80;2.50;;;;;;;;;;5043224;28;20056;-68
2022/04/18 15:04:51;;;;;;;3.45;2.20;;;;;;;;;;5039768;28;20575;-68
2022/04/18 15:07:17;;;;;;;4.10;2.45;;;;;;;;;;5042565;28;20474;-68
2022/04/18 15:09:42;;;;;;;4.25;2.40;;;;;;;;;;5040555;28;20037;-68
2022/04/18 15:12:08;;;;;;;2.97;2.45;;;;;;;;;;5039458;28;20091;-68